Time;durP1;ratioP1;P1;durP2;ratioP2;P2;SDS_P1;SDS_P2;PMS_P1;PMS_P2;Temp;Humidity;BMP_temperature;BMP_pressure;BME280_temperature;BME280_humidity;BME280_pressure;Samples;Min_cycle;Max_cycle;Signal;HPM_P1;HPM_P2
2022/11/20 00:00:08;;;;;;;16.42;11.02;;;;;;;-5.50;100.00;101253.09;1027941;28;20572;-81
2022/11/20 00:00:39;;;;;;;14.70;11.30;;;;;;;-5.51;100.00;101251.41;1028527;28;20091;-81
2022/11/20 00:01:23;;;;;;;13.22;11.10;;;;;;;-5.54;100.00;101256.81;1028323;28;20504;-81
2022/11/20 00:01:54;;;;;;;13.78;10.38;;;;;;;-5.60;100.00;101254.63;1030239;28;20513;-81
2022/11/20 00:02:26;;;;;;;13.96;11.02;;;;;;;-5.62;100.00;101254.75;1031552;28;20046;-81
2022/11/20 00:02:57;;;;;;;13.28;10.76;;;;;;;-5.74;100.00;101249.56;1027696;28;20050;-81
2022/11/20 00:03:29;;;;;;;15.92;11.62;;;;;;;-5.78;100.00;101250.66;1032473;28;20408;-81
2022/11/20 00:04:01;;;;;;;15.72;10.86;;;;;;;-5.65;100.00;101251.53;1035407;28;20115;-81
2022/11/20 00:04:32;;;;;;;14.76;11.44;;;;;;;-5.74;100.00;101262.53;1036920;28;20045;-80
2022/11/20 00:05:04;;;;;;;15.82;10.90;;;;;;;-5.56;100.00;101258.69;1038068;28;20048;-80
2022/11/20 00:05:35;;;;;;;14.74;11.24;;;;;;;-5.50;100.00;101255.69;1035771;28;20172;-80
2022/11/20 00:06:13;;;;;;;17.44;11.72;;;;;;;-5.47;100.00;101258.09;1036528;28;20176;-80
2022/11/20 00:06:44;;;;;;;17.50;11.82;;;;;;;-5.47;100.00;101252.91;1034559;28;20042;-80
2022/11/20 00:07:16;;;;;;;14.32;11.02;;;;;;;-5.65;100.00;101254.94;1033224;28;20412;-80
2022/11/20 00:07:47;;;;;;;14.26;10.76;;;;;;;-5.64;100.00;101255.78;1030499;28;20561;-81
2022/11/20 00:08:19;;;;;;;17.36;11.24;;;;;;;-5.51;100.00;101253.19;1027754;28;20047;-80
2022/11/20 00:08:51;;;;;;;15.10;11.78;;;;;;;-5.50;100.00;101247.88;1020593;29;20508;-80
2022/11/20 00:09:22;;;;;;;15.34;10.42;;;;;;;-5.48;100.00;101255.56;1020369;29;20078;-80
2022/11/20 00:09:54;;;;;;;15.64;11.18;;;;;;;-5.40;100.00;101254.16;1027814;28;20065;-80
2022/11/20 00:10:26;;;;;;;17.48;11.54;;;;;;;-5.40;100.00;101251.56;1030410;28;20042;-80
2022/11/20 00:11:02;;;;;;;14.98;10.60;;;;;;;-5.41;100.00;101255.09;1027921;28;20130;-80
2022/11/20 00:11:34;;;;;;;15.38;11.86;;;;;;;-5.37;100.00;101253.94;1035525;28;20407;-80
2022/11/20 00:12:05;;;;;;;15.28;11.42;;;;;;;-5.38;100.00;101252.28;1033550;28;20161;-80
2022/11/20 00:12:37;;;;;;;15.34;11.22;;;;;;;-5.39;100.00;101260.16;1035919;28;20389;-80
2022/11/20 00:13:08;;;;;;;14.24;11.60;;;;;;;-5.33;100.00;101255.38;1032362;28;20193;-80
2022/11/20 00:13:40;;;;;;;14.12;11.16;;;;;;;-5.57;100.00;101248.41;1031552;28;20468;-80
2022/11/20 00:14:11;;;;;;;15.04;11.34;;;;;;;-5.67;100.00;101246.44;1027787;28;20170;-80
2022/11/20 00:14:43;;;;;;;15.68;11.60;;;;;;;-5.76;100.00;101249.63;1034055;28;20100;-80
2022/11/20 00:15:14;;;;;;;14.48;10.74;;;;;;;-5.84;100.00;101248.47;1031775;28;20061;-80
2022/11/20 00:15:46;;;;;;;12.82;10.38;;;;;;;-5.84;100.00;101253.66;1027995;28;20133;-80
2022/11/20 00:16:20;;;;;;;13.52;11.08;;;;;;;-5.81;100.00;101256.88;1028376;28;20114;-80
2022/11/20 00:16:52;;;;;;;14.58;11.78;;;;;;;-5.79;100.00;101252.41;1032562;28;20061;-80
2022/11/20 00:17:23;;;;;;;13.84;11.18;;;;;;;-5.85;100.00;101252.00;1036542;28;20061;-80
2022/11/20 00:17:55;;;;;;;13.60;10.40;;;;;;;-5.86;100.00;101250.34;1032014;28;20496;-80
2022/11/20 00:18:27;;;;;;;14.12;11.16;;;;;;;-5.86;100.00;101253.75;1028342;28;20089;-80
2022/11/20 00:18:58;;;;;;;13.78;10.02;;;;;;;-5.90;100.00;101254.94;1031675;28;20132;-80
2022/11/20 00:19:30;;;;;;;12.60;11.24;;;;;;;-5.93;100.00;101250.78;1032410;28;20038;-80
2022/11/20 00:20:02;;;;;;;13.45;10.77;;;;;;;-5.98;100.00;101257.19;1028415;28;20035;-81
2022/11/20 00:20:33;;;;;;;14.04;11.22;;;;;;;-5.94;100.00;101253.47;1027873;28;20302;-81
2022/11/20 00:21:07;;;;;;;16.12;11.86;;;;;;;-5.98;100.00;101247.66;1028310;28;20423;-81
2022/11/20 00:21:39;;;;;;;15.36;12.24;;;;;;;-5.91;100.00;101250.69;1025293;28;20133;-81
2022/11/20 00:22:10;;;;;;;13.36;10.34;;;;;;;-5.82;100.00;101254.38;1029813;28;20266;-80
2022/11/20 00:22:42;;;;;;;13.95;11.88;;;;;;;-5.75;100.00;101246.13;1027644;28;20150;-80
2022/11/20 00:23:13;;;;;;;16.20;11.18;;;;;;;-5.69;100.00;101252.66;1024652;28;20298;-80
2022/11/20 00:23:45;;;;;;;13.54;11.16;;;;;;;-5.67;100.00;101248.22;1022137;28;20134;-80
2022/11/20 00:24:17;;;;;;;12.88;9.90;;;;;;;-5.73;100.00;101246.03;1032305;28;20124;-80
2022/11/20 00:24:48;;;;;;;14.66;10.92;;;;;;;-5.70;100.00;101241.47;1029374;28;20449;-80
2022/11/20 00:25:20;;;;;;;14.18;11.54;;;;;;;-5.69;100.00;101250.91;1034767;28;20099;-80
2022/11/20 00:25:51;;;;;;;12.22;9.94;;;;;;;-5.65;100.00;101248.94;1031974;28;20538;-80
2022/11/20 00:26:25;;;;;;;13.46;11.40;;;;;;;-5.65;100.00;101248.94;1036078;28;20045;-80
2022/11/20 00:26:56;;;;;;;15.28;12.32;;;;;;;-5.64;100.00;101243.63;1028028;28;20074;-80
2022/11/20 00:27:28;;;;;;;13.94;11.56;;;;;;;-5.65;100.00;101248.94;1035640;28;20042;-80
2022/11/20 00:27:59;;;;;;;17.26;12.18;;;;;;;-5.58;100.00;101247.59;1035761;28;20038;-80
2022/11/20 00:28:31;;;;;;;15.16;11.44;;;;;;;-5.62;100.00;101253.91;1033626;28;20454;-80
2022/11/20 00:29:02;;;;;;;13.64;11.18;;;;;;;-5.64;100.00;101246.22;1028083;28;20129;-80
2022/11/20 00:29:34;;;;;;;15.70;11.38;;;;;;;-5.68;100.00;101249.97;1031672;28;20437;-80
2022/11/20 00:30:06;;;;;;;15.24;12.66;;;;;;;-5.69;100.00;101252.66;1028290;28;20185;-80
2022/11/20 00:30:42;;;;;;;16.16;10.98;;;;;;;-5.76;100.00;101252.22;1024840;28;20145;-80
2022/11/20 00:31:15;;;;;;;18.68;11.88;;;;;;;-5.71;100.00;101252.78;1023833;28;20048;-80
2022/11/20 00:31:46;;;;;;;15.94;11.52;;;;;;;-5.72;100.00;101243.31;1023256;28;20525;-81
2022/11/20 00:32:18;;;;;;;21.00;11.94;;;;;;;-5.84;100.00;101253.66;1026866;28;20113;-80
2022/11/20 00:32:49;;;;;;;13.68;10.26;;;;;;;-5.83;100.00;101244.94;1033938;28;20128;-80
2022/11/20 00:33:21;;;;;;;14.90;11.14;;;;;;;-5.83;100.00;101247.53;1035771;28;20116;-80
2022/11/20 00:33:53;;;;;;;13.42;10.78;;;;;;;-5.87;100.00;101239.13;1032004;28;20057;-80
2022/11/20 00:34:24;;;;;;;14.46;11.18;;;;;;;-5.94;100.00;101243.94;1029601;28;20386;-80
2022/11/20 00:34:56;;;;;;;15.56;11.34;;;;;;;-6.02;100.00;101240.19;1028367;28;20485;-80
2022/11/20 00:35:27;;;;;;;13.90;10.96;;;;;;;-6.02;100.00;101235.84;1031952;28;20117;-80
2022/11/20 00:36:07;;;;;;;13.80;12.02;;;;;;;-6.03;100.00;101233.31;1032631;28;20112;-80
2022/11/20 00:36:38;;;;;;;12.94;9.74;;;;;;;-6.01;100.00;101229.72;1035300;28;20050;-80
2022/11/20 00:37:10;;;;;;;13.18;10.46;;;;;;;-6.11;100.00;101228.63;1035669;28;20045;-80
2022/11/20 00:37:41;;;;;;;16.64;11.52;;;;;;;-6.26;100.00;101232.22;1033032;28;20121;-80
2022/11/20 00:38:13;;;;;;;15.62;10.70;;;;;;;-6.22;100.00;101228.50;1034564;28;20097;-81
2022/11/20 00:38:45;;;;;;;13.48;10.76;;;;;;;-6.10;100.00;101232.88;1035838;28;20069;-81
2022/11/20 00:39:16;;;;;;;12.88;9.56;;;;;;;-5.94;100.00;101233.56;1032157;28;20042;-80
2022/11/20 00:39:48;;;;;;;15.12;11.60;;;;;;;-5.75;100.00;101229.69;1035675;28;20407;-80
2022/11/20 00:40:19;;;;;;;13.24;11.42;;;;;;;-5.69;100.00;101235.34;1035583;28;20034;-80
2022/11/20 00:40:58;;;;;;;18.44;11.42;;;;;;;-5.60;100.00;101236.47;1031360;28;20164;-80
2022/11/20 00:41:30;;;;;;;14.46;10.96;;;;;;;-5.65;100.00;101241.16;1032876;28;20114;-80
2022/11/20 00:42:01;;;;;;;13.86;10.66;;;;;;;-5.68;100.00;101241.34;1034533;28;20440;-80
2022/11/20 00:42:33;;;;;;;12.44;10.86;;;;;;;-5.78;100.00;101235.09;1031667;28;20097;-80
2022/11/20 00:43:05;;;;;;;14.48;10.72;;;;;;;-5.85;100.00;101231.25;1027787;28;20046;-80
2022/11/20 00:43:37;;;;;;;13.80;10.18;;;;;;;-5.93;100.00;101239.56;1028058;28;20101;-80
2022/11/20 00:44:08;;;;;;;15.72;12.06;;;;;;;-5.96;100.00;101239.78;1028084;28;20465;-80
2022/11/20 00:44:40;;;;;;;13.50;11.70;;;;;;;-6.08;100.00;101241.38;1028148;28;20113;-80
2022/11/20 00:45:11;;;;;;;15.34;11.06;;;;;;;-6.12;100.00;101236.50;1028144;28;20046;-80
2022/11/20 00:45:43;;;;;;;14.66;11.04;;;;;;;-6.13;100.00;101243.47;1028826;28;20070;-80
2022/11/20 00:46:17;;;;;;;15.78;11.14;;;;;;;-6.13;100.00;101237.44;1035579;28;20046;-80
2022/11/20 00:46:49;;;;;;;15.18;11.32;;;;;;;-5.98;100.00;101239.06;1032217;28;20043;-80
2022/11/20 00:47:20;;;;;;;16.00;11.94;;;;;;;-5.85;100.00;101237.28;1031730;28;20188;-80
2022/11/20 00:47:51;;;;;;;14.52;11.78;;;;;;;-5.82;100.00;101234.47;1031377;28;20544;-80
2022/11/20 00:48:23;;;;;;;15.18;11.62;;;;;;;-5.72;100.00;101230.34;1030853;28;20129;-80
2022/11/20 00:48:55;;;;;;;17.30;11.46;;;;;;;-5.66;100.00;101232.53;1027549;28;20133;-80
2022/11/20 00:49:26;;;;;;;16.72;13.00;;;;;;;-5.61;100.00;101224.44;1030124;28;20042;-80
2022/11/20 00:49:58;;;;;;;16.68;12.34;;;;;;;-5.51;100.00;101232.44;1031312;28;20173;-80
2022/11/20 00:50:29;;;;;;;18.74;12.68;;;;;;;-5.52;100.00;101223.81;1027563;28;20062;-80
2022/11/20 00:51:01;;;;;;;15.50;11.54;;;;;;;-5.53;100.00;101226.50;1028419;28;20039;-80
2022/11/20 00:51:33;;;;;;;18.70;12.04;;;;;;;-5.56;100.00;101222.34;1031368;28;20038;-80
2022/11/20 00:52:04;;;;;;;18.64;12.22;;;;;;;-5.57;100.00;101227.66;1028001;28;20050;-80
2022/11/20 00:52:35;;;;;;;15.00;11.96;;;;;;;-5.58;100.00;101221.63;1031693;28;20444;-80
2022/11/20 00:53:07;;;;;;;15.84;11.62;;;;;;;-5.63;100.00;101226.31;1024298;28;20122;-80
2022/11/20 00:53:39;;;;;;;16.94;12.00;;;;;;;-5.60;100.00;101231.28;1028019;28;20117;-80
2022/11/20 00:54:10;;;;;;;15.54;11.66;;;;;;;-5.67;100.00;101220.50;1032544;28;20166;-80
2022/11/20 00:54:42;;;;;;;14.34;11.72;;;;;;;-5.67;100.00;101224.84;1032067;28;20057;-80
2022/11/20 00:55:13;;;;;;;15.18;11.74;;;;;;;-5.71;100.00;101228.59;1035666;28;20132;-80
2022/11/20 00:56:02;;;;;;;15.52;12.80;;;;;;;-5.70;100.00;101230.25;1028681;28;20517;-80
2022/11/20 00:56:34;;;;;;;15.16;12.62;;;;;;;-5.83;100.00;101229.38;1027246;28;20138;-80
2022/11/20 00:57:05;;;;;;;17.80;12.64;;;;;;;-5.93;100.00;101235.22;1030410;28;20034;-80
2022/11/20 00:57:37;;;;;;;15.76;12.64;;;;;;;-5.90;100.00;101233.34;1027539;28;21651;-80
2022/11/20 00:58:08;;;;;;;16.08;12.96;;;;;;;-6.04;100.00;101222.09;1023765;28;20047;-80
2022/11/20 00:58:46;;;;;;;16.78;12.62;;;;;;;-6.10;100.00;101224.28;1033396;28;20412;-80
2022/11/20 00:59:17;;;;;;;17.40;13.38;;;;;;;-6.28;100.00;101221.13;1035743;28;20172;-80
2022/11/20 00:59:49;;;;;;;15.86;12.42;;;;;;;-6.31;100.00;101234.25;1035544;28;20038;-80
2022/11/20 01:00:21;;;;;;;18.74;12.86;;;;;;;-6.35;100.00;101223.25;1033663;28;20038;-80
2022/11/20 01:00:52;;;;;;;15.16;12.88;;;;;;;-6.34;100.00;101227.50;1031619;28;20042;-80
2022/11/20 01:01:25;;;;;;;14.20;11.38;;;;;;;-6.38;100.00;101225.22;1027620;28;20102;-80
2022/11/20 01:01:56;;;;;;;14.84;11.92;;;;;;;-6.40;100.00;101229.66;1026207;28;20115;-80
2022/11/20 01:02:28;;;;;;;19.08;12.08;;;;;;;-6.39;100.00;101216.63;1028210;28;20125;-80
2022/11/20 01:02:59;;;;;;;13.36;11.26;;;;;;;-6.31;100.00;101219.53;1035663;28;20120;-80
2022/11/20 01:03:36;;;;;;;12.54;10.94;;;;;;;-6.15;100.00;101219.41;1036205;28;20041;-80
2022/11/20 01:04:08;;;;;;;14.82;12.18;;;;;;;-6.10;100.00;101221.69;1033896;28;20056;-80
2022/11/20 01:04:39;;;;;;;15.18;11.00;;;;;;;-6.08;100.00;101223.25;1031640;28;20496;-80
2022/11/20 01:05:10;;;;;;;15.84;12.14;;;;;;;-5.99;100.00;101225.25;1035324;28;20118;-80
2022/11/20 01:05:42;;;;;;;16.40;13.42;;;;;;;-5.96;100.00;101225.06;1034321;28;20456;-80
2022/11/20 01:06:22;;;;;;;15.46;11.48;;;;;;;-5.86;100.00;101219.22;1031674;28;20611;-80
2022/11/20 01:06:54;;;;;;;13.45;11.85;;;;;;;-5.76;100.00;101225.44;1025424;28;20121;-80
2022/11/20 01:07:25;;;;;;;14.76;11.62;;;;;;;-5.81;100.00;101222.34;1030148;28;20118;-80
2022/11/20 01:07:57;;;;;;;16.10;12.06;;;;;;;-5.80;100.00;101217.03;1029170;28;21355;-80
2022/11/20 01:08:32;;;;;;;15.58;11.78;;;;;;;-5.84;100.00;101218.19;1028149;28;20049;-80
2022/11/20 01:09:12;;;;;;;17.92;11.86;;;;;;;-5.84;100.00;101219.94;1033462;28;20096;-80
2022/11/20 01:09:43;;;;;;;15.50;11.82;;;;;;;-5.87;100.00;101217.56;1039581;28;20481;-80
2022/11/20 01:10:15;;;;;;;15.52;12.52;;;;;;;-5.91;100.00;101222.16;1037218;28;20135;-80
2022/11/20 01:10:46;;;;;;;16.02;12.36;;;;;;;-6.02;100.00;101225.47;1035495;28;20420;-80
2022/11/20 01:11:20;;;;;;;16.34;12.94;;;;;;;-6.20;100.00;101215.44;1032056;28;20102;-80
2022/11/20 01:11:52;;;;;;;19.04;12.64;;;;;;;-6.27;100.00;101209.84;1026864;28;20461;-80
2022/11/20 01:12:23;;;;;;;17.32;11.96;;;;;;;-6.28;100.00;101213.34;1028024;28;20129;-80
2022/11/20 01:13:37;;;;;;;19.58;12.12;;;;;;;-6.16;100.00;101216.91;1031486;28;20128;-80
2022/11/20 01:13:57;;;;;;;21.27;13.32;;;;;;;-6.15;100.00;101218.56;1032162;28;20496;-80
2022/11/20 01:14:28;;;;;;;15.94;12.14;;;;;;;-6.11;100.00;101218.25;1033347;28;20510;-80
2022/11/20 01:15:00;;;;;;;17.32;12.68;;;;;;;-6.13;100.00;101221.88;1027687;28;20129;-80
2022/11/20 01:15:33;;;;;;;17.90;12.38;;;;;;;-6.26;100.00;101214.09;1023579;28;20130;-80
2022/11/20 01:16:10;;;;;;;16.50;12.82;;;;;;;-6.39;100.00;101213.19;1023602;28;20051;-80
2022/11/20 01:16:44;;;;;;;24.24;12.52;;;;;;;-6.48;100.00;101226.75;1027288;28;20058;-80
2022/11/20 01:17:16;;;;;;;18.70;13.14;;;;;;;-6.44;100.00;101212.66;1027962;28;20035;-80
2022/11/20 01:17:47;;;;;;;17.12;12.50;;;;;;;-6.42;100.00;101214.22;1024183;28;20051;-80
2022/11/20 01:18:19;;;;;;;17.42;13.00;;;;;;;-6.55;100.00;101221.97;1032405;28;20562;-80
2022/11/20 01:18:52;;;;;;;15.66;11.86;;;;;;;-6.57;100.00;101221.22;1036143;28;20140;-80
2022/11/20 01:19:24;;;;;;;17.18;12.56;;;;;;;-6.52;100.00;101220.09;1034506;28;20386;-80
2022/11/20 01:19:56;;;;;;;14.62;11.94;;;;;;;-6.49;100.00;101217.31;1031322;28;20089;-80
2022/11/20 01:20:27;;;;;;;16.92;12.08;;;;;;;-6.36;100.00;101220.78;1027634;28;20059;-80
2022/11/20 01:21:05;;;;;;;14.46;11.80;;;;;;;-6.36;100.00;101218.19;1028793;28;20047;-80
2022/11/20 01:21:38;;;;;;;14.06;11.12;;;;;;;-6.38;100.00;101223.47;1033119;28;20125;-80
2022/11/20 01:22:10;;;;;;;19.42;14.48;;;;;;;-6.35;100.00;101212.91;1024961;28;20058;-80
2022/11/20 01:22:41;;;;;;;14.92;11.36;;;;;;;-6.29;100.00;101212.53;1027188;28;20061;-80
2022/11/20 01:23:12;;;;;;;15.48;11.06;;;;;;;-6.33;100.00;101225.75;1024107;28;20137;-80
2022/11/20 01:23:45;;;;;;;16.42;13.98;;;;;;;-6.38;100.00;101227.81;1024642;28;20126;-80
2022/11/20 01:24:19;;;;;;;17.46;12.78;;;;;;;-6.38;100.00;101227.81;1027213;28;20129;-81
2022/11/20 01:24:50;;;;;;;18.08;11.82;;;;;;;-6.44;100.00;101223.84;1028205;28;20090;-80
2022/11/20 01:25:22;;;;;;;14.90;11.86;;;;;;;-6.43;100.00;101220.34;1027598;28;20086;-80
2022/11/20 01:25:53;;;;;;;15.92;11.32;;;;;;;-6.41;100.00;101223.66;1029981;28;20226;-80
2022/11/20 01:26:30;;;;;;;18.00;11.86;;;;;;;-6.36;100.00;101231.97;1035114;28;20144;-80
2022/11/20 01:27:01;;;;;;;16.36;12.54;;;;;;;-6.32;100.00;101223.06;1037241;28;20117;-80
2022/11/20 01:27:33;;;;;;;14.66;10.68;;;;;;;-6.27;100.00;101225.38;1035618;28;20042;-80
2022/11/20 01:28:04;;;;;;;15.66;11.68;;;;;;;-6.25;100.00;101236.47;1031537;28;20072;-80
2022/11/20 01:28:37;;;;;;;14.76;11.24;;;;;;;-6.24;100.00;101227.78;1026117;28;20042;-80
2022/11/20 01:29:13;;;;;;;17.66;12.48;;;;;;;-6.26;100.00;101227.88;1024088;28;20130;-80
2022/11/20 01:29:45;;;;;;;16.66;12.04;;;;;;;-6.21;100.00;101232.75;1028576;28;20174;-80
2022/11/20 01:30:16;;;;;;;14.76;12.16;;;;;;;-6.15;100.00;101227.16;1037954;28;20046;-80
2022/11/20 01:30:48;;;;;;;15.30;10.96;;;;;;;-6.17;100.00;101231.63;1039537;28;20101;-80
2022/11/20 01:31:22;;;;;;;16.36;11.10;;;;;;;-6.04;100.00;101226.47;1040055;28;20455;-80
2022/11/20 01:31:54;;;;;;;15.64;11.92;;;;;;;-6.04;100.00;101226.47;1035764;28;20209;-80
2022/11/20 01:32:25;;;;;;;17.14;12.76;;;;;;;-6.08;100.00;101228.44;1033146;28;20062;-80
2022/11/20 01:32:57;;;;;;;17.82;13.68;;;;;;;-6.11;100.00;101226.03;1032206;28;20111;-80
2022/11/20 01:33:28;;;;;;;16.48;12.64;;;;;;;-6.13;100.00;101222.72;1036255;28;20108;-80
2022/11/20 01:34:09;;;;;;;16.36;12.98;;;;;;;-6.08;100.00;101231.03;1035541;28;20076;-80
2022/11/20 01:34:40;;;;;;;15.98;12.57;;;;;;;-6.09;100.00;101224.19;1035910;28;20049;-80
2022/11/20 01:35:12;;;;;;;16.66;12.52;;;;;;;-6.12;100.00;101226.97;1030463;28;20440;-80
2022/11/20 01:35:43;;;;;;;15.08;12.08;;;;;;;-6.12;100.00;101214.00;1027037;28;20039;-80
2022/11/20 01:36:16;;;;;;;14.86;11.98;;;;;;;-6.15;100.00;101219.41;1031774;28;20567;-80
2022/11/20 01:36:48;;;;;;;16.46;12.88;;;;;;;-6.19;100.00;101217.09;1037458;28;20132;-80
2022/11/20 01:37:19;;;;;;;15.76;12.32;;;;;;;-6.21;100.00;101219.78;1039002;28;20088;-80
2022/11/20 01:37:51;;;;;;;14.72;11.66;;;;;;;-6.25;100.00;101219.16;1031707;28;20437;-80
2022/11/20 01:38:22;;;;;;;14.70;11.54;;;;;;;-6.32;100.00;101222.22;1031874;28;20038;-80
2022/11/20 01:38:55;;;;;;;13.66;10.84;;;;;;;-6.32;100.00;101222.22;1036085;28;20133;-80
2022/11/20 01:39:27;;;;;;;19.02;12.36;;;;;;;-6.28;100.00;101223.72;1036125;28;20129;-80
2022/11/20 01:39:58;;;;;;;14.82;11.72;;;;;;;-6.33;100.00;101220.56;1037403;28;20153;-80
2022/11/20 01:40:30;;;;;;;14.52;11.56;;;;;;;-6.21;100.00;101230.16;1035907;28;20056;-80
2022/11/20 01:41:02;;;;;;;18.26;13.14;;;;;;;-6.14;100.00;101226.25;1034421;28;20443;-80
2022/11/20 01:43:20;;;;;;;17.08;12.02;;;;;;;-5.93;100.00;101230.03;1029832;28;20050;-80
2022/11/20 01:43:52;;;;;;;14.60;11.74;;;;;;;-5.95;100.00;101226.72;1033561;28;20139;-80
2022/11/20 01:44:42;;;;;;;16.42;13.04;;;;;;;-5.80;100.00;101221.41;1031237;28;20141;-80
2022/11/20 01:45:47;;;;;;;15.04;11.80;;;;;;;-5.73;100.00;101220.09;1027395;28;20069;-80
2022/11/20 01:46:19;;;;;;;18.58;12.38;;;;;;;-5.72;100.00;101213.97;1037695;28;20052;-80
2022/11/20 01:46:59;;;;;;;15.60;12.44;;;;;;;-5.77;100.00;101213.41;1035583;28;20136;-80
2022/11/20 01:47:40;;;;;;;25.52;13.45;;;;;;;-5.82;100.00;101215.47;1031413;28;20038;-80
2022/11/20 01:48:12;;;;;;;15.28;12.06;;;;;;;-5.88;100.00;101219.31;1031487;28;20181;-80
2022/11/20 01:48:54;;;;;;;15.54;12.40;;;;;;;-6.02;100.00;101220.28;1030524;28;20050;-80
2022/11/20 01:49:33;;;;;;;15.40;11.42;;;;;;;-6.10;100.00;101216.50;1034654;28;20408;-80
2022/11/20 01:50:12;;;;;;;16.52;12.86;;;;;;;-6.03;100.00;101218.56;1035645;28;20042;-80
2022/11/20 01:50:44;;;;;;;17.00;12.68;;;;;;;-6.01;100.00;101211.56;1035169;28;20132;-80
2022/11/20 01:51:38;;;;;;;15.38;12.60;;;;;;;-6.11;100.00;101220.03;1035385;28;20030;-80
2022/11/20 01:52:20;;;;;;;17.44;13.64;;;;;;;-6.11;100.00;101215.66;1027766;28;20059;-80
2022/11/20 01:53:01;;;;;;;16.84;13.56;;;;;;;-6.10;100.00;101212.13;1032044;28;20096;-80
2022/11/20 01:53:35;;;;;;;15.88;12.24;;;;;;;-6.16;100.00;101207.38;1031270;28;20492;-80
2022/11/20 01:54:11;;;;;;;15.42;11.50;;;;;;;-6.12;100.00;101208.81;1030878;28;20168;-80
2022/11/20 01:54:48;;;;;;;16.22;12.08;;;;;;;-6.08;100.00;101207.69;1027152;28;20050;-80
2022/11/20 01:55:23;;;;;;;17.38;12.16;;;;;;;-6.15;100.00;101203.00;1025428;28;20130;-80
2022/11/20 01:55:57;;;;;;;13.26;11.22;;;;;;;-6.12;100.00;101203.63;1026037;28;20079;-80
2022/11/20 01:56:31;;;;;;;16.48;12.54;;;;;;;-6.09;100.00;101200.84;1032334;28;20129;-80
2022/11/20 01:57:04;;;;;;;14.14;11.24;;;;;;;-6.10;100.00;101206.97;1028126;28;20034;-80
2022/11/20 01:57:37;;;;;;;16.96;12.22;;;;;;;-6.07;100.00;101211.09;1028462;28;20039;-80
2022/11/20 01:58:09;;;;;;;23.86;12.92;;;;;;;-6.09;100.00;101206.03;1028939;28;20035;-80
2022/11/20 01:58:45;;;;;;;16.82;12.62;;;;;;;-6.25;100.00;101202.78;1029993;28;20086;-80
2022/11/20 01:59:17;;;;;;;17.18;12.52;;;;;;;-6.40;100.00;101198.56;1030973;28;20092;-80
2022/11/20 01:59:57;;;;;;;14.62;11.20;;;;;;;-6.34;100.00;101193.81;1031490;28;20129;-80
2022/11/20 02:00:29;;;;;;;13.98;12.34;;;;;;;-6.40;100.00;101193.41;1035304;28;20043;-80
2022/11/20 02:01:00;;;;;;;16.24;12.96;;;;;;;-6.47;100.00;101192.13;1036106;28;20085;-80
2022/11/20 02:01:33;;;;;;;15.62;11.80;;;;;;;-6.55;100.00;101196.06;1037302;28;20050;-80
2022/11/20 02:02:04;;;;;;;16.76;12.34;;;;;;;-6.56;100.00;101194.38;1037301;28;20041;-80
2022/11/20 02:02:37;;;;;;;16.48;11.38;;;;;;;-6.55;100.00;101192.63;1031262;28;20054;-80
2022/11/20 02:03:13;;;;;;;14.96;11.94;;;;;;;-6.59;100.00;101194.56;1028203;28;20503;-80
2022/11/20 02:03:45;;;;;;;15.48;11.06;;;;;;;-6.59;100.00;101194.56;1027600;28;20445;-80
2022/11/20 02:04:17;;;;;;;14.42;12.14;;;;;;;-6.60;100.00;101198.06;1024631;28;20118;-80
2022/11/20 02:04:51;;;;;;;17.12;13.80;;;;;;;-6.61;100.00;101191.22;1028300;28;20042;-80
2022/11/20 02:05:38;;;;;;;12.92;11.20;;;;;;;-6.61;100.00;101193.00;1031527;28;20054;-80
2022/11/20 02:06:17;;;;;;;16.54;12.08;;;;;;;-6.57;100.00;101191.91;1029802;28;20048;-80
2022/11/20 02:06:57;;;;;;;16.42;12.02;;;;;;;-6.58;100.00;101196.22;1027407;28;20046;-80
2022/11/20 02:07:28;;;;;;;20.76;12.34;;;;;;;-6.62;100.00;101196.50;1027516;28;20046;-80
2022/11/20 02:08:03;;;;;;;18.24;12.24;;;;;;;-6.62;100.00;101199.09;1029984;28;20066;-80
2022/11/20 02:08:35;;;;;;;11.76;10.24;;;;;;;-6.58;100.00;101196.22;1027504;28;20122;-80
2022/11/20 02:09:06;;;;;;;14.18;10.24;;;;;;;-6.51;100.00;101194.09;1029611;28;20047;-80
2022/11/20 02:09:38;;;;;;;15.70;12.18;;;;;;;-6.53;100.00;101192.53;1032329;28;20437;-80
2022/11/20 02:10:09;;;;;;;16.60;12.86;;;;;;;-6.56;100.00;101198.75;1031949;28;20136;-80
2022/11/20 02:10:41;;;;;;;15.40;10.96;;;;;;;-6.56;100.00;101189.22;1027797;28;20047;-80
2022/11/20 02:11:12;;;;;;;16.38;13.34;;;;;;;-6.56;100.00;101194.38;1035681;28;20164;-80
2022/11/20 02:11:44;;;;;;;16.72;11.50;;;;;;;-6.57;100.00;101190.13;1031360;28;20162;-80
2022/11/20 02:13:56;;;;;;;15.72;11.48;;;;;;;-6.53;100.00;101182.16;1032481;28;20042;-80
2022/11/20 02:14:28;;;;;;;16.10;12.16;;;;;;;-6.54;100.00;101191.69;1031396;28;20407;-80
2022/11/20 02:14:59;;;;;;;13.86;11.06;;;;;;;-6.61;100.00;101195.59;1037819;28;20403;-80
2022/11/20 02:15:33;;;;;;;17.02;12.08;;;;;;;-6.63;100.00;101192.25;1032545;28;20038;-80
2022/11/20 02:16:09;;;;;;;13.38;11.10;;;;;;;-6.66;100.00;101192.47;1031089;28;20096;-80
2022/11/20 02:16:45;;;;;;;16.56;12.52;;;;;;;-6.70;100.00;101191.81;1030995;28;20074;-80
2022/11/20 02:17:16;;;;;;;14.58;11.50;;;;;;;-6.73;100.00;101189.44;1027308;28;20148;-80
2022/11/20 02:17:48;;;;;;;17.28;11.42;;;;;;;-6.66;100.00;101192.47;1023355;28;20066;-80
2022/11/20 02:18:21;;;;;;;16.06;11.26;;;;;;;-6.51;100.00;101181.13;1023394;28;20039;-80
2022/11/20 02:18:54;;;;;;;15.36;11.90;;;;;;;-6.65;100.00;101189.78;1030659;28;20189;-80
2022/11/20 02:19:30;;;;;;;16.10;12.60;;;;;;;-6.62;100.00;101181.81;1031425;28;20498;-80
2022/11/20 02:20:02;;;;;;;16.82;12.72;;;;;;;-6.59;100.00;101184.19;1031547;28;20479;-80
2022/11/20 02:20:34;;;;;;;15.68;11.44;;;;;;;-6.47;100.00;101181.75;1025041;28;20149;-80
2022/11/20 02:21:25;;;;;;;18.20;12.68;;;;;;;-6.42;100.00;101179.72;1027146;28;20082;-80
2022/11/20 02:22:06;;;;;;;;;;;;;;;-6.49;100.00;101174.09;1031345;28;20078;-80
2022/11/20 02:22:43;;;;;;;16.24;10.86;;;;;;;-6.46;100.00;101175.66;1032496;28;19929;-80
2022/11/20 02:23:30;;;;;;;13.82;10.96;;;;;;;-6.52;100.00;101179.47;1031171;28;20046;-80
2022/11/20 02:24:08;;;;;;;16.44;11.16;;;;;;;-6.50;100.00;101181.97;1033567;28;20046;-80
2022/11/20 02:24:39;;;;;;;15.70;11.62;;;;;;;-6.49;100.00;101183.63;1031529;28;20077;-80
2022/11/20 02:25:11;;;;;;;14.26;11.56;;;;;;;-6.53;100.00;101174.41;1030390;28;20511;-80
2022/11/20 02:25:43;;;;;;;15.82;12.20;;;;;;;-6.57;100.00;101177.19;1035634;28;20444;-80
2022/11/20 02:26:15;;;;;;;17.74;12.22;;;;;;;-6.68;100.00;101174.44;1035874;28;20153;-79
2022/11/20 02:26:56;;;;;;;15.94;13.06;;;;;;;-6.66;100.00;101177.75;1035378;28;20143;-80
2022/11/20 02:27:28;;;;;;;17.00;12.32;;;;;;;-6.69;100.00;101174.53;1035623;28;20038;-81
2022/11/20 02:28:00;;;;;;;16.22;11.76;;;;;;;-6.74;100.00;101174.00;1033289;28;20049;-80
2022/11/20 02:28:32;;;;;;;15.48;10.78;;;;;;;-6.72;100.00;101167.78;1031318;28;20094;-81
2022/11/20 02:29:03;;;;;;;14.28;10.84;;;;;;;-6.72;100.00;101170.38;1028089;28;20126;-80
2022/11/20 02:29:42;;;;;;;15.40;12.26;;;;;;;-6.79;100.00;101166.53;1027894;28;20583;-81
2022/11/20 02:30:13;;;;;;;16.60;12.80;;;;;;;-6.81;100.00;101172.72;1028846;28;20038;-81
2022/11/20 02:30:45;;;;;;;15.28;12.00;;;;;;;-6.90;100.00;101169.75;1032842;28;20217;-79
2022/11/20 02:31:16;;;;;;;18.04;12.62;;;;;;;-6.91;100.00;101159.50;1031079;28;20172;-81
2022/11/20 02:31:48;;;;;;;15.90;12.52;;;;;;;-6.94;100.00;101170.06;1031576;28;20487;-80
2022/11/20 02:32:21;;;;;;;13.76;11.02;;;;;;;-6.90;100.00;101163.75;1028244;28;20506;-81
2022/11/20 02:32:53;;;;;;;16.40;12.52;;;;;;;-6.89;100.00;101162.81;1029732;28;20598;-80
2022/11/20 02:33:24;;;;;;;15.98;12.90;;;;;;;-6.88;100.00;101159.31;1031459;28;20034;-81